Nagoya, Japan

12:18 AM JST on January 28, 2015 (GMT +0900)
Tenpaku Ward,nagoya City | Change Station
CLOSE
Current Station
Personal Weather Station
Location: %u540D%u53E4%u5C4B%u5E02, %U611B%U77E5%U770C
Elevation: 62 ft
Nearby Weather Stations

Elev 62 ft 35.13 °N, 136.98 °E | Updated 1 minute ago

Partly Cloudy
Partly Cloudy
40.8 °F
Feels Like 41 °F
N
0.0
Wind Variable Wind from WNW
Gusts 1.0 mph

Today
High -- | Low -- °F
--% Chance of Precip.
Yesterday
High -- | Low -- °F
Precip. -- in
6:54 AM 5:15 PM
First Quarter, 55% visible
Pressure 29.95 in
Visibility 6.2 miles
Clouds Few 2000 ft
Windchill 41 °F
Dew Point 30 °F
Humidity 65%
Rainfall 0.00 in
Snow Depth Not available.
UV 0 out of 12
Pollen Not available.
Air Quality Not available.
Flu Activity Not available.
METAR RJGG 271500Z 33028KT 9999 FEW020 06/01 Q1014 NOSIG

More Conditions Fewer Conditions

Pressure 29.95 in
Visibility 6.2 miles
Clouds Few 2000 ft
Windchill 41 °F
Dew Point 30 °F
Humidity 65%
Rainfall 0.00 in
Snow Depth Not available.
UV 0 out of 12
Pollen Not available.
Air Quality Not available.
Flu Activity Not available.
METAR RJGG 271500Z 33028KT 9999 FEW020 06/01 Q1014 NOSIG

More Conditions Fewer Conditions

10-Day Weather Forecast

Almanac

Astronomy

Jan. 28, 2015 Rise Set
Actual Time
Civil Twilight
Nautical Twilight
Astronomical Twilight
Moon
Length of Visible Light
Length of Day
Tomorrow will be .
, % of the Moon is Illuminated

Today's Extremes

Country Highs Country Lows

Community

WunderPhotos

Upload Photos

1,790,676 photos uploaded!

WunderBlogs® & News

Nearby

Air Quality

  Air Quality AQ Index Pollutant
Not available.

Snow Depth

Station Depth Elevation

Earthquake Activity

City Distance Mag. Time & Date
Minimum magnitude displayed is 2.5.

Coastal Water Temperatures

Place Temperature

Nearby Weather Stations